Meteo Giornale » Osservazioni meteo Stati Uniti (USA) » Lee's Summit
ore: 01:53 - Osservazioni Meteo Lee's Summit
Lat. 38° 57' N Lon. 94° 22' W Alt. 306 metri s.l.m.
26 °C
Sereno
Temp. 24 Ore
24 °C
37 °C
Sud/Sud-Ovest
11.1 Km/h
Dew point 16 °C
Umidità 54 %
Visibilità 10 Km
Il sole sorge alle ore 06:46
Il sole tramonta alle ore 19:48
| Data e Ora | Cielo e Fenomeni | T °C | DP °C | Um. % | Pres. hPa | Vis. km | Vento km/h | |
|---|---|---|---|---|---|---|---|---|
| Oggi h: 01:53 | Sereno | 26 | 16 | 54 | 1015 | 10 | S/SO 11.1 | |
| Oggi h: 00:53 | Sereno | 27 | 16 | 50 | 1015 | 10 | S/SO 13 | |
| Ieri h: 23:53 | Sereno | 28 | 15 | 45 | 1015 | 10 | S/SO 14.8 | |
| Ieri h: 22:53 | Sereno | 31 | 15 | 37 | 1015 | 10 | S/SO 18.5 | |
| Ieri h: 21:53 | Sereno | 31 | 16 | 40 | 1015 | 10 | S 22.2 | |
| Ieri h: 20:53 | Sereno | 32 | 17 | 40 | 1014 | 10 | S 18.5 | |
| Ieri h: 19:53 | Sereno | 33 | 17 | 38 | 1014 | 10 | S 9.3 | |
| Ieri h: 18:53 | Sereno | 34 | 18 | 38 | 1014 | 10 | S/SO 11.1 | |
| Ieri h: 17:53 | Sereno | 37 | 16 | 28 | 1014 | 10 | S/SO 20.3 | |
| Ieri h: 16:53 | Sereno | 37 | 17 | 30 | 1014 | 10 | S/SO 18.5 | |
| Ieri h: 15:53 | Sereno | 37 | 17 | 30 | 1014 | 10 | SO 25.9 | |
| Ieri h: 14:53 | Sereno | 37 | 17 | 30 | 1014 | 10 | SO 25.9 | |
| Ieri h: 13:53 | Sereno | 35 | 18 | 36 | 1014 | 10 | SO 24 | |
| Ieri h: 12:53 | Sereno | 36 | 18 | 34 | 1015 | 10 | SO 24 | |
| Ieri h: 11:53 | Sereno | 33 | 18 | 41 | 1016 | 10 | SO 27.8 | |
| Ieri h: 10:53 | Sereno | 31 | 17 | 43 | 1016 | 10 | SO 25.9 | |
| Ieri h: 09:53 | Sereno | 29 | 18 | 51 | 1016 | 10 | SO 22.2 | |
| Ieri h: 08:53 | Poco Nuvoloso | 27 | 17 | 54 | 1016 | 10 | SO 22.2 | |
| Ieri h: 07:53 | Sereno | 26 | 17 | 57 | 1015 | 10 | S/SO 24 | |
| Ieri h: 06:53 | Sereno | 24 | 17 | 64 | 1015 | 10 | S/SO 18.5 | |
| Ieri h: 05:53 | Sereno | 25 | 16 | 57 | 1014 | 10 | S/SO 18.5 | |
| Ieri h: 04:53 | Sereno | 25 | 16 | 57 | 1014 | 10 | S 22.2 | |
| Ieri h: 03:53 | Sereno | 26 | 16 | 54 | 1014 | 10 | S/SO 22.2 | |
| Ieri h: 02:53 | Sereno | 26 | 16 | 54 | 1014 | 10 | S 20.3 | |



